Time;durP1;ratioP1;P1;durP2;ratioP2;P2;SDS_P1;SDS_P2;PMS_P1;PMS_P2;Temp;Humidity;BMP_temperature;BMP_pressure;BME280_temperature;BME280_humidity;BME280_pressure;Samples;Min_cycle;Max_cycle;Signal;HPM_P1;HPM_P2
2022/07/15 00:00:11;;;;;;;;;;;;;;;15.99;64.32;97254.14;110167;1247;69486;-68
2022/07/15 00:03:00;;;;;;;;;;;;;;;15.99;62.47;97254.30;110174;1247;59677;-68
2022/07/15 00:05:29;;;;;;;;;;;;;;;15.99;62.79;97255.89;110212;1247;59710;-68
2022/07/15 00:08:00;;;;;;;;;;;;;;;15.98;64.03;97252.59;110307;1248;70688;-68
2022/07/15 00:10:30;;;;;;;;;;;;;;;15.97;66.18;97251.98;110298;1247;67698;-68
2022/07/15 00:13:01;;;;;;;;;;;;;;;15.98;68.43;97259.48;110263;1247;69277;-70
2022/07/15 00:15:31;;;;;;;;;;;;;;;15.96;64.70;97255.84;110266;1247;59678;-69
2022/07/15 00:18:04;;;;;;;;;;;;;;;15.95;64.28;97248.55;110310;1247;59704;-68
2022/07/15 00:20:33;;;;;;;;;;;;;;;15.95;64.56;97246.61;110205;1247;71227;-68
2022/07/15 00:23:04;;;;;;;;;;;;;;;15.95;64.95;97248.23;110172;1247;68047;-69
2022/07/15 00:25:34;;;;;;;;;;;;;;;15.94;64.66;97249.90;110168;1248;69388;-68
2022/07/15 00:28:05;;;;;;;;;;;;;;;15.93;66.46;97250.48;110250;1247;59717;-68
2022/07/15 00:30:38;;;;;;;;;;;;;;;15.93;67.43;97246.66;110073;1247;59671;-69
2022/07/15 00:33:08;;;;;;;;;;;;;;;15.91;64.94;97242.58;110268;1247;69638;-68
2022/07/15 00:35:39;;;;;;;;;;;;;;;15.91;64.52;97242.27;110224;1247;67636;-69
2022/07/15 00:38:09;;;;;;;;;;;;;;;15.90;66.73;97236.94;110261;1245;68331;-68
2022/07/15 00:40:47;;;;;;;;;;;;;;;15.90;67.84;97240.28;110283;1246;59699;-68
2022/07/15 00:43:17;;;;;;;;;;;;;;;15.89;67.46;97238.45;110267;1247;59683;-69
2022/07/15 00:45:47;;;;;;;;;;;;;;;15.88;66.88;97233.21;110265;1247;71585;-68
2022/07/15 00:48:16;;;;;;;;;;;;;;;15.88;66.36;97230.74;110242;1247;68414;-67
2022/07/15 00:50:48;;;;;;;;;;;;;;;15.88;66.52;97231.72;110154;1247;67637;-70
2022/07/15 00:53:19;;;;;;;;;;;;;;;15.87;67.72;97228.80;110133;1247;59760;-67
2022/07/15 00:55:49;;;;;;;;;;;;;;;15.88;67.29;97229.39;110202;1247;59696;-68
2022/07/15 00:58:21;;;;;;;;;;;;;;;15.88;66.45;97231.70;110254;1247;71289;-68
2022/07/15 01:00:51;;;;;;;;;;;;;;;15.87;66.85;97234.92;110138;1249;67615;-69
2022/07/15 01:03:20;;;;;;;;;;;;;;;15.86;67.19;97236.59;110165;1247;68731;-68
2022/07/15 01:05:51;;;;;;;;;;;;;;;15.84;67.28;97234.05;110294;1247;59685;-69
2022/07/15 01:08:21;;;;;;;;;;;;;;;15.80;67.68;97232.23;110187;1248;59749;-69
2022/07/15 01:10:51;;;;;;;;;;;;;;;15.77;68.33;97232.35;110277;1248;70672;-69
2022/07/15 01:13:23;;;;;;;;;;;;;;;15.74;67.72;97231.91;110303;1247;68587;-68
2022/07/15 01:15:55;;;;;;;;;;;;;;;15.71;69.10;97229.79;110163;1248;68665;-70
2022/07/15 01:18:26;;;;;;;;;;;;;;;15.66;69.39;97227.41;109979;1247;59729;-67
2022/07/15 01:20:56;;;;;;;;;;;;;;;15.63;65.16;97222.98;110161;1248;59759;-68
2022/07/15 01:23:26;;;;;;;;;;;;;;;15.59;65.83;97221.83;110195;1247;71582;-68
2022/07/15 01:26:03;;;;;;;;;;;;;;;15.53;67.01;97220.18;110230;1248;68600;-68
2022/07/15 01:28:33;;;;;;;;;;;;;;;15.46;70.30;97219.13;110260;1246;68611;-67
2022/07/15 01:31:03;;;;;;;;;;;;;;;15.40;69.54;97218.71;110115;1248;59742;-68
2022/07/15 01:33:34;;;;;;;;;;;;;;;15.35;69.19;97217.41;110182;1247;59682;-68
2022/07/15 01:36:04;;;;;;;;;;;;;;;15.31;66.56;97215.34;110125;1247;71754;-68
2022/07/15 01:38:35;;;;;;;;;;;;;;;15.31;65.57;97212.90;110297;1247;67595;-69
2022/07/15 01:41:17;;;;;;;;;;;;;;;15.31;64.90;97212.69;110321;1247;68446;-68
2022/07/15 01:43:48;;;;;;;;;;;;;;;15.33;64.84;97210.07;110316;1247;59741;-69
2022/07/15 01:46:18;;;;;;;;;;;;;;;15.35;64.77;97211.84;110388;1247;59692;-69
2022/07/15 01:51:56;;;;;;;;;;;;;;;15.33;68.60;97216.60;110157;1247;67910;-70
2022/07/15 01:54:27;;;;;;;;;;;;;;;15.28;68.05;97214.90;110224;1247;67627;-68
2022/07/15 01:56:59;;;;;;;;;;;;;;;15.23;68.11;97209.92;110110;1247;59751;-68
2022/07/15 01:59:31;;;;;;;;;;;;;;;15.19;66.05;97206.10;109977;1249;59692;-67
2022/07/15 02:02:02;;;;;;;;;;;;;;;15.17;65.84;97203.15;110153;1249;71766;-68
2022/07/15 02:04:31;;;;;;;;;;;;;;;15.15;66.31;97205.45;110108;1248;67798;-67
2022/07/15 02:07:01;;;;;;;;;;;;;;;15.11;68.84;97205.08;110161;1247;69504;-66
2022/07/15 02:09:35;;;;;;;;;;;;;;;15.06;71.07;97206.10;110080;1248;59724;-66
2022/07/15 02:12:06;;;;;;;;;;;;;;;14.99;69.63;97210.58;110232;1247;59687;-68
2022/07/15 02:14:41;;;;;;;;;;;;;;;14.93;67.14;97208.19;110285;1247;69650;-68
2022/07/15 02:17:11;;;;;;;;;;;;;;;14.89;65.51;97209.48;110087;1248;68605;-68
2022/07/15 02:19:43;;;;;;;;;;;;;;;14.86;68.57;97208.52;110221;1247;68679;-68
2022/07/15 02:22:12;;;;;;;;;;;;;;;14.83;69.23;97208.31;110151;1247;59746;-70
2022/07/15 02:24:43;;;;;;;;;;;;;;;14.77;70.27;97211.23;110267;1247;59689;-68
2022/07/15 02:27:21;;;;;;;;;;;;;;;14.71;72.68;97210.02;110439;1247;70724;-67
2022/07/15 02:29:49;;;;;;;;;;;;;;;14.65;74.07;97211.48;110361;1247;66931;-70
2022/07/15 02:32:22;;;;;;;;;;;;;;;14.61;72.16;97209.94;110493;1247;68565;-68
2022/07/15 02:34:52;;;;;;;;;;;;;;;14.58;67.81;97209.15;110225;1247;60043;-68
2022/07/15 02:37:22;;;;;;;;;;;;;;;14.57;69.17;97209.23;110356;1246;59734;-67
2022/07/15 02:39:52;;;;;;;;;;;;;;;14.56;70.90;97214.14;110395;1247;70669;-69
2022/07/15 02:42:23;;;;;;;;;;;;;;;14.50;73.28;97215.37;110393;1247;67031;-69
2022/07/15 02:44:53;;;;;;;;;;;;;;;14.42;74.53;97216.72;110297;1247;69322;-67
2022/07/15 02:47:23;;;;;;;;;;;;;;;14.36;74.00;97213.46;110236;1245;59752;-68
2022/07/15 02:49:54;;;;;;;;;;;;;;;14.33;73.85;97212.89;110234;1247;59734;-68
2022/07/15 02:52:24;;;;;;;;;;;;;;;14.30;75.44;97211.09;110130;1247;71506;-68
2022/07/15 02:54:54;;;;;;;;;;;;;;;14.26;75.37;97212.77;110209;1247;68546;-70
2022/07/15 02:57:24;;;;;;;;;;;;;;;14.21;73.47;97212.33;110096;1248;69401;-68
2022/07/15 02:59:54;;;;;;;;;;;;;;;14.17;73.54;97210.98;110201;1248;59755;-68
2022/07/15 03:02:23;;;;;;;;;;;;;;;14.16;75.42;97210.15;110489;1244;59692;-68
2022/07/15 03:04:54;;;;;;;;;;;;;;;14.18;76.53;97213.97;110264;1246;71530;-68
2022/07/15 03:07:23;;;;;;;;;;;;;;;14.21;76.63;97209.66;110166;1247;68613;-67
2022/07/15 03:09:53;;;;;;;;;;;;;;;14.24;76.22;97214.86;110204;1247;68526;-68
2022/07/15 03:12:23;;;;;;;;;;;;;;;14.26;76.44;97213.63;110536;1244;59706;-68
2022/07/15 03:14:55;;;;;;;;;;;;;;;14.31;76.26;97214.48;110238;1247;59702;-68
2022/07/15 03:17:25;;;;;;;;;;;;;;;14.33;75.63;97212.69;110176;1247;71359;-67
2022/07/15 03:19:55;;;;;;;;;;;;;;;14.35;76.01;97213.69;110214;1246;67781;-69
2022/07/15 03:22:27;;;;;;;;;;;;;;;14.38;72.84;97207.70;110237;1247;68767;-69
2022/07/15 03:24:59;;;;;;;;;;;;;;;14.43;72.15;97210.56;110470;1247;59692;-69
2022/07/15 03:27:29;;;;;;;;;;;;;;;14.47;75.01;97213.34;110282;1247;59722;-70
2022/07/15 03:30:00;;;;;;;;;;;;;;;14.49;74.82;97211.07;110083;1248;70695;-68
2022/07/15 03:32:30;;;;;;;;;;;;;;;14.50;74.82;97212.85;110260;1246;67767;-67
2022/07/15 03:35:01;;;;;;;;;;;;;;;14.51;75.78;97212.78;110155;1247;69226;-68
2022/07/15 03:37:33;;;;;;;;;;;;;;;14.52;76.14;97207.82;109943;1247;59734;-68
2022/07/15 03:40:02;;;;;;;;;;;;;;;14.55;75.29;97209.29;110292;1247;59738;-68
2022/07/15 03:42:32;;;;;;;;;;;;;;;14.60;73.88;97213.55;110202;1247;71509;-70
2022/07/15 03:45:01;;;;;;;;;;;;;;;14.67;74.15;97213.80;110227;1247;68609;-68
2022/07/15 03:47:31;;;;;;;;;;;;;;;14.74;74.72;97216.75;110162;1247;69266;-70
2022/07/15 03:50:03;;;;;;;;;;;;;;;14.81;75.14;97213.34;110241;1247;59702;-68
2022/07/15 03:52:32;;;;;;;;;;;;;;;14.87;74.72;97218.41;110274;1247;59774;-69
2022/07/15 03:55:01;;;;;;;;;;;;;;;14.91;73.88;97218.89;110271;1247;70411;-69
2022/07/15 03:57:31;;;;;;;;;;;;;;;14.94;72.29;97219.20;110333;1246;67783;-69
2022/07/15 04:00:00;;;;;;;;;;;;;;;14.95;73.67;97221.88;110297;1247;68476;-68
2022/07/15 04:02:29;;;;;;;;;;;;;;;14.97;73.52;97222.89;110310;1247;59760;-68
2022/07/15 04:04:58;;;;;;;;;;;;;;;15.00;74.00;97226.33;110327;1245;59604;-67
2022/07/15 04:07:28;;;;;;;;;;;;;;;15.06;74.98;97225.98;110542;1245;71349;-70
2022/07/15 04:09:57;;;;;;;;;;;;;;;15.13;75.11;97220.39;110407;1247;67222;-68
2022/07/15 04:12:26;;;;;;;;;;;;;;;15.19;74.81;97222.56;110216;1247;68714;-68
2022/07/15 04:14:55;;;;;;;;;;;;;;;15.29;74.53;97218.70;110442;1246;59694;-69
2022/07/15 04:17:25;;;;;;;;;;;;;;;15.41;74.19;97215.79;110267;1246;59719;-68
2022/07/15 04:19:55;;;;;;;;;;;;;;;15.53;73.08;97210.04;110390;1246;71445;-68
2022/07/15 04:22:25;;;;;;;;;;;;;;;15.63;72.70;97213.52;110484;1247;68640;-67
2022/07/15 04:24:54;;;;;;;;;;;;;;;15.74;73.17;97214.33;110157;1247;68612;-68
2022/07/15 04:27:24;;;;;;;;;;;;;;;15.87;72.92;97216.13;110111;1247;59687;-67
2022/07/15 04:29:53;;;;;;;;;;;;;;;16.03;73.13;97214.35;110376;1247;59695;-68
2022/07/15 04:32:25;;;;;;;;;;;;;;;16.26;73.27;97214.75;110284;1247;70718;-69
2022/07/15 04:34:55;;;;;;;;;;;;;;;16.48;71.80;97215.37;110402;1245;68564;-69
2022/07/15 04:37:24;;;;;;;;;;;;;;;16.69;70.65;97213.30;110238;1247;69419;-66
2022/07/15 04:39:55;;;;;;;;;;;;;;;16.90;70.10;97216.27;110510;1244;59738;-70
2022/07/15 04:42:25;;;;;;;;;;;;;;;17.14;68.94;97214.73;110255;1247;60123;-69
2022/07/15 04:44:54;;;;;;;;;;;;;;;17.34;69.31;97217.00;110218;1247;71635;-70
2022/07/15 04:47:24;;;;;;;;;;;;;;;17.50;68.73;97213.27;110152;1247;68419;-67
2022/07/15 04:52:47;;;;;;;;;;;;;;;17.89;67.87;97206.88;110242;1247;59696;-68
2022/07/15 04:55:17;;;;;;;;;;;;;;;18.04;66.90;97206.54;110249;1247;59889;-67
2022/07/15 04:57:48;;;;;;;;;;;;;;;18.16;66.68;97209.83;110281;1244;70613;-70
2022/07/15 05:00:17;;;;;;;;;;;;;;;18.19;66.56;97210.00;110518;1245;68476;-68
2022/07/15 05:02:46;;;;;;;;;;;;;;;18.28;66.50;97211.39;110339;1244;69473;-67
2022/07/15 05:05:17;;;;;;;;;;;;;;;18.42;66.43;97213.25;110370;1246;59769;-68
2022/07/15 05:07:46;;;;;;;;;;;;;;;18.56;66.61;97213.60;110361;1245;59744;-68
2022/07/15 05:10:15;;;;;;;;;;;;;;;18.76;65.75;97219.81;110203;1247;69812;-67
2022/07/15 05:12:50;;;;;;;;;;;;;;;18.98;64.79;97219.10;110184;1247;68084;-68
2022/07/15 05:15:19;;;;;;;;;;;;;;;19.24;63.00;97222.09;110193;1247;69255;-69
2022/07/15 05:17:48;;;;;;;;;;;;;;;19.57;60.72;97223.50;110395;1247;59734;-68
2022/07/15 05:20:21;;;;;;;;;;;;;;;19.89;60.60;97224.33;110223;1247;59691;-68
2022/07/15 05:22:51;;;;;;;;;;;;;;;20.22;59.35;97224.94;110231;1247;71582;-70
2022/07/15 05:25:21;;;;;;;;;;;;;;;20.51;59.85;97226.21;110167;1245;68105;-69
2022/07/15 05:27:51;;;;;;;;;;;;;;;20.75;59.99;97228.00;110246;1247;69537;-71
2022/07/15 05:30:20;;;;;;;;;;;;;;;20.99;58.87;97231.41;110021;1247;59759;-68
2022/07/15 05:32:50;;;;;;;;;;;;;;;21.14;57.26;97230.36;110254;1247;59616;-69
2022/07/15 05:35:21;;;;;;;;;;;;;;;21.32;57.31;97229.98;110274;1247;71258;-68
2022/07/15 05:37:52;;;;;;;;;;;;;;;21.49;55.25;97229.52;110291;1247;67655;-69
2022/07/15 05:40:29;;;;;;;;;;;;;;;21.80;54.21;97223.52;109949;1247;69431;-70
2022/07/15 05:42:58;;;;;;;;;;;;;;;22.16;54.55;97223.02;110170;1247;59655;-68
2022/07/15 05:45:27;;;;;;;;;;;;;;;22.38;52.75;97221.27;109926;1247;59705;-69
2022/07/15 05:48:01;;;;;;;;;;;;;;;22.49;51.87;97219.40;110182;1247;71407;-69
2022/07/15 05:50:31;;;;;;;;;;;;;;;22.70;53.20;97217.20;110272;1246;68926;-68
2022/07/15 05:53:01;;;;;;;;;;;;;;;22.82;52.29;97216.64;110138;1247;68213;-69
2022/07/15 05:55:30;;;;;;;;;;;;;;;22.85;51.61;97217.06;110190;1247;59758;-69
2022/07/15 05:57:59;;;;;;;;;;;;;;;22.92;51.59;97219.02;110166;1247;59689;-67
2022/07/15 06:00:30;;;;;;;;;;;;;;;23.05;50.57;97220.39;110293;1247;71526;-71
2022/07/15 06:02:59;;;;;;;;;;;;;;;23.19;48.86;97220.04;109995;1248;67935;-68
2022/07/15 06:05:30;;;;;;;;;;;;;;;23.32;48.68;97218.09;110249;1245;68673;-70
2022/07/15 06:08:01;;;;;;;;;;;;;;;23.46;48.26;97220.89;110275;1247;60047;-68
2022/07/15 06:10:34;;;;;;;;;;;;;;;23.62;47.98;97221.52;110146;1247;59676;-69
2022/07/15 06:13:04;;;;;;;;;;;;;;;23.67;47.66;97219.54;109907;1247;71526;-73
2022/07/15 06:15:33;;;;;;;;;;;;;;;23.77;46.10;97214.08;109967;1248;68724;-69
2022/07/15 06:18:04;;;;;;;;;;;;;;;24.00;45.15;97217.36;109918;1246;69339;-70
2022/07/15 06:20:33;;;;;;;;;;;;;;;24.19;43.52;97216.46;110188;1247;59786;-69
2022/07/15 06:23:02;;;;;;;;;;;;;;;24.50;42.74;97217.04;110164;1247;59761;-68
2022/07/15 06:25:31;;;;;;;;;;;;;;;24.81;41.04;97221.16;110177;1247;71154;-70
2022/07/15 06:28:01;;;;;;;;;;;;;;;25.10;40.08;97217.81;110441;1244;68702;-69
2022/07/15 06:30:30;;;;;;;;;;;;;;;25.33;38.89;97219.42;110180;1247;68987;-70
2022/07/15 06:32:59;;;;;;;;;;;;;;;25.64;38.73;97217.43;110436;1244;59732;-70
2022/07/15 06:35:28;;;;;;;;;;;;;;;25.93;38.18;97213.69;110371;1245;59729;-70
2022/07/15 06:37:57;;;;;;;;;;;;;;;26.16;37.89;97205.19;110239;1247;71564;-71
2022/07/15 06:40:26;;;;;;;;;;;;;;;26.35;37.36;97205.40;110444;1244;68651;-74
2022/07/15 06:42:56;;;;;;;;;;;;;;;26.30;36.21;97213.02;110251;1247;68657;-73
2022/07/15 06:45:45;;;;;;;;;;;;;;;26.42;37.08;97217.86;110214;1246;59692;-76
2022/07/15 06:48:15;;;;;;;;;;;;;;;26.68;35.85;97221.86;110420;1244;59684;-76
2022/07/15 06:50:44;;;;;;;;;;;;;;;26.67;35.58;97219.48;110220;1246;72237;-75
2022/07/15 06:53:14;;;;;;;;;;;;;;;26.76;36.18;97226.30;110261;1245;68610;-74
2022/07/15 06:55:43;;;;;;;;;;;;;;;27.01;35.37;97231.73;110470;1244;68661;-75
2022/07/15 06:58:13;;;;;;;;;;;;;;;27.08;34.19;97234.19;110239;1247;59724;-75
2022/07/15 07:00:42;;;;;;;;;;;;;;;26.76;35.34;97234.23;110308;1247;59685;-75
2022/07/15 07:03:10;;;;;;;;;;;;;;;26.45;36.00;97232.39;110449;1244;71229;-74
2022/07/15 07:05:40;;;;;;;;;;;;;;;26.43;36.26;97226.14;110188;1245;67994;-74
2022/07/15 07:08:09;;;;;;;;;;;;;;;26.80;36.70;97229.71;110212;1247;68651;-76
2022/07/15 07:10:38;;;;;;;;;;;;;;;27.10;35.85;97229.30;110284;1245;59733;-74
2022/07/15 07:13:07;;;;;;;;;;;;;;;26.96;35.61;97231.48;110526;1244;59660;-76
2022/07/15 07:15:36;;;;;;;;;;;;;;;27.10;36.00;97231.80;110262;1247;70710;-73
2022/07/15 07:18:11;;;;;;;;;;;;;;;27.38;35.01;97232.06;110392;1244;67911;-73
2022/07/15 07:20:43;;;;;;;;;;;;;;;27.43;34.79;97230.89;110493;1244;69433;-74
2022/07/15 07:23:12;;;;;;;;;;;;;;;27.86;34.81;97234.30;110205;1247;59713;-76
2022/07/15 07:25:41;;;;;;;;;;;;;;;28.33;34.53;97234.40;110466;1245;60022;-75
2022/07/15 07:28:12;;;;;;;;;;;;;;;28.63;33.67;97231.33;110335;1245;70829;-77
2022/07/15 07:30:42;;;;;;;;;;;;;;;28.83;32.92;97233.92;110579;1244;67886;-74
2022/07/15 07:33:11;;;;;;;;;;;;;;;28.91;32.50;97237.45;110443;1244;69436;-75
2022/07/15 07:35:40;;;;;;;;;;;;;;;29.27;33.02;97243.77;110200;1244;59679;-77
2022/07/15 07:38:10;;;;;;;;;;;;;;;29.59;32.97;97244.89;109681;1244;733789;-75
2022/07/15 07:40:39;;;;;;;;;;;;;;;29.02;32.50;97242.73;110217;1247;72212;-75
2022/07/15 07:43:07;;;;;;;;;;;;;;;29.26;32.84;97240.38;110508;1244;68569;-75
2022/07/15 07:45:36;;;;;;;;;;;;;;;29.31;32.90;97237.59;110424;1245;69476;-74
2022/07/15 07:48:05;;;;;;;;;;;;;;;29.57;32.79;97240.39;110421;1245;59726;-74
2022/07/15 07:50:34;;;;;;;;;;;;;;;29.83;32.24;97239.60;110325;1245;59819;-73
2022/07/15 07:53:03;;;;;;;;;;;;;;;30.18;31.88;97230.92;110270;1247;70805;-74
2022/07/15 07:55:32;;;;;;;;;;;;;;;30.46;30.77;97228.80;110450;1245;67879;-73
2022/07/15 07:58:01;;;;;;;;;;;;;;;30.47;30.23;97231.79;110241;1247;68803;-73
2022/07/15 08:00:30;;;;;;;;;;;;;;;30.37;30.85;97228.70;110348;1244;59715;-74
2022/07/15 08:03:00;;;;;;;;;;;;;;;30.04;31.19;97227.42;110375;1245;59718;-74
2022/07/15 08:05:29;;;;;;;;;;;;;;;29.62;31.66;97227.84;110375;1245;71562;-73
2022/07/15 08:08:12;;;;;;;;;;;;;;;29.30;32.11;97228.30;110256;1244;67722;-74
2022/07/15 08:10:42;;;;;;;;;;;;;;;29.42;33.39;97230.66;110412;1244;69397;-72
2022/07/15 08:13:15;;;;;;;;;;;;;;;29.59;32.85;97233.60;110286;1247;59745;-76
2022/07/15 08:15:44;;;;;;;;;;;;;;;29.76;32.73;97234.21;110337;1245;59670;-75
2022/07/15 08:18:14;;;;;;;;;;;;;;;29.87;32.89;97232.90;110509;1245;71566;-77
2022/07/15 08:20:43;;;;;;;;;;;;;;;30.08;32.92;97230.98;110528;1244;67753;-77
2022/07/15 08:23:14;;;;;;;;;;;;;;;30.46;32.44;97226.01;110509;1244;69429;-77
2022/07/15 08:25:42;;;;;;;;;;;;;;;31.00;32.05;97223.58;110502;1244;59693;-77
2022/07/15 08:28:11;;;;;;;;;;;;;;;31.60;31.31;97224.55;110539;1244;60079;-75
2022/07/15 08:30:41;;;;;;;;;;;;;;;32.08;30.62;97223.43;110415;1245;70749;-77
2022/07/15 08:33:11;;;;;;;;;;;;;;;32.63;30.30;97221.08;110251;1246;67775;-74
2022/07/15 08:35:41;;;;;;;;;;;;;;;32.98;29.02;97223.60;110545;1244;69448;-77
2022/07/15 08:38:10;;;;;;;;;;;;;;;32.99;27.84;97222.65;110424;1244;59687;-75
2022/07/15 08:40:40;;;;;;;;;;;;;;;32.86;27.04;97221.77;110556;1244;59685;-76
2022/07/15 08:43:10;;;;;;;;;;;;;;;33.11;28.04;97220.46;110472;1244;69583;-76
2022/07/15 08:45:42;;;;;;;;;;;;;;;33.37;28.27;97216.30;110434;1244;68682;-77
2022/07/15 08:48:13;;;;;;;;;;;;;;;33.53;26.99;97217.98;110431;1246;68537;-75
2022/07/15 08:50:42;;;;;;;;;;;;;;;33.33;26.53;97218.16;110233;1247;59699;-75
2022/07/15 08:53:11;;;;;;;;;;;;;;;33.20;26.77;97221.45;110418;1244;59763;-77
2022/07/15 08:55:40;;;;;;;;;;;;;;;33.35;25.62;97217.09;110151;1247;70792;-78
2022/07/15 08:58:09;;;;;;;;;;;;;;;32.86;25.98;97211.16;110296;1247;68675;-76
2022/07/15 09:00:38;;;;;;;;;;;;;;;32.91;26.78;97211.80;110440;1245;68656;-75
2022/07/15 09:03:09;;;;;;;;;;;;;;;32.40;26.49;97208.15;110195;1245;59756;-75
2022/07/15 09:05:38;;;;;;;;;;;;;;;32.55;27.02;97217.81;110498;1244;59735;-75
2022/07/15 09:08:10;;;;;;;;;;;;;;;33.15;26.57;97221.41;110230;1247;70610;-76
2022/07/15 09:10:50;;;;;;;;;;;;;;;33.21;26.27;97222.42;110491;1244;68610;-77
2022/07/15 09:13:33;;;;;;;;;;;;;;;33.35;25.89;97224.75;110321;1245;69236;-75
2022/07/15 09:16:04;;;;;;;;;;;;;;;33.36;25.27;97220.46;110132;1247;59729;-76
2022/07/15 09:18:35;;;;;;;;;;;;;;;33.47;25.53;97221.55;110439;1245;59683;-75
2022/07/15 09:21:18;;;;;;;;;;;;;;;33.90;25.05;97227.52;110432;1245;71350;-77
2022/07/15 09:23:48;;;;;;;;;;;;;;;34.20;24.11;97233.01;110279;1244;67697;-76
2022/07/15 09:26:25;;;;;;;;;;;;;;;33.94;24.10;97229.49;110378;1244;69132;-76
2022/07/15 09:28:55;;;;;;;;;;;;;;;34.23;23.58;97227.10;110476;1244;59701;-75
2022/07/15 09:34:18;;;;;;;;;;;;;;;33.44;24.33;97221.44;109900;1247;70801;-74
2022/07/15 09:36:53;;;;;;;;;;;;;;;33.81;24.23;97225.52;110536;1244;68690;-76
2022/07/15 09:39:22;;;;;;;;;;;;;;;34.46;24.40;97218.47;110382;1244;68774;-73
2022/07/15 09:41:52;;;;;;;;;;;;;;;34.49;24.08;97213.99;110475;1244;60191;-77
2022/07/15 09:44:31;;;;;;;;;;;;;;;34.69;23.69;97218.13;110212;1247;59753;-77
2022/07/15 09:47:01;;;;;;;;;;;;;;;35.21;24.04;97218.65;110254;1245;70933;-75
2022/07/15 09:49:32;;;;;;;;;;;;;;;35.14;22.85;97215.94;110353;1244;68380;-75
2022/07/15 09:52:02;;;;;;;;;;;;;;;33.84;23.76;97222.07;110318;1244;69484;-77
2022/07/15 09:54:32;;;;;;;;;;;;;;;32.76;25.14;97218.75;110353;1244;59723;-75
2022/07/15 09:57:02;;;;;;;;;;;;;;;33.08;25.09;97217.52;110334;1247;59757;-77
2022/07/15 09:59:31;;;;;;;;;;;;;;;33.88;25.21;97222.58;110562;1244;71340;-76
2022/07/15 10:02:08;;;;;;;;;;;;;;;34.36;23.69;97215.27;110155;1247;68755;-76
2022/07/15 10:04:38;;;;;;;;;;;;;;;34.77;22.81;97207.55;110446;1244;69516;-75
2022/07/15 10:07:10;;;;;;;;;;;;;;;35.15;23.00;97208.30;110308;1245;59733;-76
2022/07/15 10:10:01;;;;;;;;;;;;;;;35.49;22.70;97211.23;110207;1247;59701;-75
2022/07/15 10:12:54;;;;;;;;;;;;;;;35.56;22.57;97209.37;110079;1247;69792;-76
2022/07/15 10:15:24;;;;;;;;;;;;;;;35.42;22.46;97208.52;110350;1244;68854;-75
2022/07/15 10:17:52;;;;;;;;;;;;;;;35.25;22.59;97206.70;110384;1245;69502;-75
2022/07/15 10:20:31;;;;;;;;;;;;;;;35.23;22.88;97207.63;110483;1244;59710;-74
2022/07/15 10:23:00;;;;;;;;;;;;;;;35.27;22.71;97211.21;110329;1245;59642;-74
2022/07/15 10:25:40;;;;;;;;;;;;;;;35.11;23.21;97210.27;110181;1247;71528;-76
2022/07/15 10:28:38;;;;;;;;;;;;;;;34.88;23.11;97208.20;110267;1246;67846;-75
2022/07/15 10:31:14;;;;;;;;;;;;;;;34.60;23.02;97206.66;110224;1247;69531;-74
2022/07/15 10:34:03;;;;;;;;;;;;;;;34.48;22.92;97217.56;110267;1245;59686;-75
2022/07/15 10:36:47;;;;;;;;;;;;;;;34.38;23.42;97215.41;110263;1245;59644;-75
2022/07/15 10:39:17;;;;;;;;;;;;;;;34.18;23.82;97217.86;110361;1244;70379;-75
2022/07/15 10:41:46;;;;;;;;;;;;;;;34.09;23.93;97210.63;110506;1243;68342;-76
2022/07/15 10:44:15;;;;;;;;;;;;;;;34.13;24.37;97209.35;110324;1244;69424;-77
2022/07/15 10:46:44;;;;;;;;;;;;;;;34.16;24.79;97210.00;110427;1244;59754;-76
2022/07/15 10:49:13;;;;;;;;;;;;;;;34.24;24.21;97204.54;110253;1247;59640;-75
2022/07/15 10:51:43;;;;;;;;;;;;;;;34.08;24.41;97196.75;110527;1244;71475;-76
2022/07/15 10:54:18;;;;;;;;;;;;;;;33.95;24.37;97200.41;110281;1247;67735;-74
2022/07/15 10:56:51;;;;;;;;;;;;;;;33.18;24.91;97189.30;110163;1247;69447;-76
2022/07/15 10:59:21;;;;;;;;;;;;;;;33.59;25.25;97195.02;110464;1244;59758;-75
2022/07/15 11:02:10;;;;;;;;;;;;;;;33.51;24.54;97191.28;110551;1244;59697;-74
2022/07/15 11:04:42;;;;;;;;;;;;;;;33.10;25.60;97189.36;110436;1244;71575;-75
2022/07/15 11:07:14;;;;;;;;;;;;;;;33.40;25.10;97191.08;110437;1244;68418;-76
2022/07/15 11:09:51;;;;;;;;;;;;;;;33.52;24.59;97190.23;110456;1244;69557;-77
2022/07/15 11:12:22;;;;;;;;;;;;;;;33.78;25.31;97188.16;110468;1244;59684;-75
2022/07/15 11:14:52;;;;;;;;;;;;;;;33.98;24.73;97187.92;110344;1245;59688;-75
2022/07/15 11:17:37;;;;;;;;;;;;;;;34.13;23.90;97186.89;110264;1244;70838;-75
2022/07/15 11:20:09;;;;;;;;;;;;;;;34.35;23.75;97181.91;110288;1246;68482;-76
2022/07/15 11:22:40;;;;;;;;;;;;;;;34.43;23.01;97185.32;110522;1243;68767;-75
2022/07/15 11:25:21;;;;;;;;;;;;;;;34.32;22.99;97181.92;110506;1244;60168;-76
2022/07/15 11:28:01;;;;;;;;;;;;;;;34.25;23.02;97182.52;110335;1244;59692;-76
2022/07/15 11:30:33;;;;;;;;;;;;;;;33.71;23.31;97183.59;110388;1244;70672;-76
2022/07/15 11:33:03;;;;;;;;;;;;;;;33.95;23.93;97187.59;110368;1245;68368;-75
2022/07/15 11:35:44;;;;;;;;;;;;;;;34.09;24.49;97180.10;110451;1244;68647;-75
2022/07/15 11:38:13;;;;;;;;;;;;;;;34.07;24.19;97177.48;110437;1244;59699;-76
2022/07/15 11:46:28;;;;;;;;;;;;;;;33.96;23.92;97172.90;110174;1247;68624;-75
2022/07/15 11:48:58;;;;;;;;;;;;;;;33.61;24.06;97173.35;110370;1244;68632;-76
2022/07/15 11:51:29;;;;;;;;;;;;;;;33.46;24.28;97173.73;110211;1247;59709;-78
2022/07/15 11:53:58;;;;;;;;;;;;;;;33.61;24.55;97173.25;110470;1245;59754;-75
2022/07/15 11:56:27;;;;;;;;;;;;;;;33.84;24.74;97177.51;110437;1244;71499;-76
2022/07/15 11:58:57;;;;;;;;;;;;;;;34.17;23.97;97173.50;110241;1247;67837;-75
2022/07/15 12:01:28;;;;;;;;;;;;;;;34.34;24.03;97171.02;110276;1244;68536;-78
2022/07/15 12:03:58;;;;;;;;;;;;;;;34.51;23.84;97171.27;110247;1247;59738;-77
2022/07/15 12:06:32;;;;;;;;;;;;;;;34.53;23.43;97162.59;110379;1244;59725;-75
2022/07/15 12:09:03;;;;;;;;;;;;;;;34.37;22.61;97166.58;110347;1244;70670;-74
2022/07/15 12:11:35;;;;;;;;;;;;;;;34.19;23.40;97172.30;110222;1246;67821;-75
2022/07/15 12:14:12;;;;;;;;;;;;;;;33.83;23.46;97173.27;110165;1247;68457;-75
2022/07/15 12:16:42;;;;;;;;;;;;;;;33.70;23.47;97172.20;110235;1244;59732;-76
2022/07/15 12:19:18;;;;;;;;;;;;;;;33.50;23.72;97176.23;110268;1247;59676;-75
2022/07/15 12:21:48;;;;;;;;;;;;;;;33.19;24.47;97175.50;110216;1247;70825;-77
2022/07/15 12:24:18;;;;;;;;;;;;;;;33.06;24.70;97176.67;110316;1244;68397;-75
2022/07/15 12:26:49;;;;;;;;;;;;;;;33.13;24.15;97179.05;110410;1244;69388;-76
2022/07/15 12:29:19;;;;;;;;;;;;;;;33.33;23.80;97179.39;110231;1247;59769;-75
2022/07/15 12:32:02;;;;;;;;;;;;;;;33.48;23.66;97184.84;110321;1245;59687;-76
2022/07/15 12:34:46;;;;;;;;;;;;;;;33.58;23.13;97185.33;110556;1244;71575;-74
2022/07/15 12:37:16;;;;;;;;;;;;;;;33.35;23.14;97188.70;110226;1247;67835;-75
2022/07/15 12:39:53;;;;;;;;;;;;;;;33.02;23.48;97190.50;110535;1244;68991;-75
2022/07/15 12:42:23;;;;;;;;;;;;;;;32.86;24.19;97189.71;110424;1244;59747;-76
2022/07/15 12:45:12;;;;;;;;;;;;;;;32.79;24.63;97192.48;110289;1247;59779;-74
2022/07/15 12:48:01;;;;;;;;;;;;;;;32.64;24.49;97188.69;110247;1247;71598;-77
2022/07/15 12:50:31;;;;;;;;;;;;;;;32.53;25.14;97191.52;110380;1244;68421;-74
2022/07/15 12:53:01;;;;;;;;;;;;;;;32.46;24.98;97191.55;110121;1245;69457;-77
2022/07/15 12:55:32;;;;;;;;;;;;;;;32.29;25.43;97190.11;110425;1244;59659;-76
2022/07/15 12:58:08;;;;;;;;;;;;;;;32.43;25.35;97185.36;110431;1244;59674;-77
2022/07/15 13:00:37;;;;;;;;;;;;;;;32.57;25.58;97185.60;110231;1247;71424;-75
2022/07/15 13:03:17;;;;;;;;;;;;;;;32.78;25.79;97184.56;110451;1242;67783;-76
2022/07/15 13:05:54;;;;;;;;;;;;;;;33.12;24.96;97185.27;110486;1244;68463;-77
2022/07/15 13:08:30;;;;;;;;;;;;;;;33.20;25.76;97183.20;110228;1247;59765;-75
2022/07/15 13:11:00;;;;;;;;;;;;;;;33.14;25.55;97181.65;110532;1244;59688;-75